PWSweather.com
Personal Weather Stations
Station Observations
WISCHPK61
Green Bay Schmitt Park, Green Bay, WI 54311

Green Bay Schmitt ParkGreen Bay, WI 54311

Lat: 44.514277, Lon: -87.935067

Elevation: 735

Station Type: Acu Rite Pro Weather Center model 02032C

http://greenbayweathercam.com

High Low Average
Temperature 85.6°F29.8°C 58.5°F14.7°C 69.8°F21.0°C
Dew Point 85.3°F29.6°C 58.2°F14.6°C 69.5°F20.8°C
Winds 2.3 mph 3.7 kmh Calm Calm Calm SSWCalm SSW
Wind Gusts 5.8 mph9.3 kmh -- 1.0 mph1.6 kmh
Humidity 99% 99% 99%
Pressure 29.35 in993.9 mb 29.26 in990.9 mb -
Precipitation 0.00 in0.0 mm - -
Hour Temp Dew Point Humidity Winds Wind Gusts Pressure Precip Precip Rate Daily Precip Total
12:00 AM 62.3°F16.8°C 62.0°F16.7°C 99% Calm Calm -- 29.34 in993.6 mb - 0.00 in0.0 mm 0.00 in0.0 mm
01:00 AM 61.5°F16.4°C 61.2°F16.2°C 99% Calm Calm -- 29.34 in993.6 mb - 0.00 in0.0 mm 0.00 in0.0 mm
02:00 AM 60.6°F15.9°C 60.3°F15.7°C 99% Calm Calm -- 29.34 in993.6 mb - 0.00 in0.0 mm 0.00 in0.0 mm
03:00 AM 59.7°F15.4°C 59.4°F15.2°C 99% Calm Calm -- 29.34 in993.6 mb - 0.00 in0.0 mm 0.00 in0.0 mm
04:00 AM 59.2°F15.1°C 58.9°F14.9°C 99% Calm Calm -- 29.34 in993.6 mb - 0.00 in0.0 mm 0.00 in0.0 mm
05:00 AM 58.6°F14.8°C 58.3°F14.6°C 99% Calm Calm -- 29.34 in993.6 mb - 0.00 in0.0 mm 0.00 in0.0 mm
06:00 AM 58.5°F14.7°C 58.2°F14.6°C 99% Calm Calm -- 29.34 in993.6 mb - 0.00 in0.0 mm 0.00 in0.0 mm
07:00 AM 58.8°F14.9°C 58.5°F14.7°C 99% Calm Calm -- 29.34 in993.6 mb - 0.00 in0.0 mm 0.00 in0.0 mm
08:00 AM 61.2°F16.2°C 60.9°F16.1°C 99% Calm Calm -- 29.35 in993.9 mb - 0.00 in0.0 mm 0.00 in0.0 mm
09:00 AM 65.1°F18.4°C 64.8°F18.2°C 99% 1.2 mph SSE1.9 kmh SSE -- 29.35 in993.9 mb - 0.00 in0.0 mm 0.00 in0.0 mm
10:00 AM 69.6°F20.9°C 69.3°F20.7°C 99% Calm Calm -- 29.35 in993.9 mb - 0.00 in0.0 mm 0.00 in0.0 mm
11:00 AM 74.3°F23.5°C 74.0°F23.3°C 99% 1.2 mph SSE1.9 kmh SSE -- 29.35 in993.9 mb - 0.00 in0.0 mm 0.00 in0.0 mm
12:00 PM 78.4°F25.8°C 78.1°F25.6°C 99% Calm Calm 2.3 mph3.7 kmh 29.34 in993.6 mb - 0.00 in0.0 mm 0.00 in0.0 mm
01:00 PM 83.8°F28.8°C 83.5°F28.6°C 99% 1.2 mph NNW1.9 kmh NNW 3.5 mph5.6 kmh 29.32 in992.9 mb - 0.00 in0.0 mm 0.00 in0.0 mm
02:00 PM 85.6°F29.8°C 85.3°F29.6°C 99% 1.2 mph E1.9 kmh E 3.5 mph5.6 kmh 29.31 in992.6 mb - 0.00 in0.0 mm 0.00 in0.0 mm
03:00 PM 81.9°F27.7°C 81.6°F27.6°C 99% Calm Calm 1.2 mph1.9 kmh 29.30 in992.2 mb - 0.00 in0.0 mm 0.00 in0.0 mm
04:00 PM 80.5°F26.9°C 80.2°F26.8°C 99% 2.3 mph NNW3.7 kmh NNW 5.8 mph9.3 kmh 29.27 in991.2 mb - 0.00 in0.0 mm 0.00 in0.0 mm
05:00 PM 79.2°F26.2°C 78.9°F26.1°C 99% 1.2 mph S1.9 kmh S 2.3 mph3.7 kmh 29.27 in991.2 mb - 0.00 in0.0 mm 0.00 in0.0 mm
06:00 PM 77.4°F25.2°C 77.1°F25.1°C 99% Calm Calm 1.2 mph1.9 kmh 29.26 in990.9 mb - 0.00 in0.0 mm 0.00 in0.0 mm
07:00 PM 75.5°F24.2°C 75.2°F24.0°C 99% Calm Calm 1.2 mph1.9 kmh 29.26 in990.9 mb - 0.00 in0.0 mm 0.00 in0.0 mm
08:00 PM 72.9°F22.7°C 72.6°F22.6°C 99% Calm Calm -- 29.27 in991.2 mb - 0.00 in0.0 mm 0.00 in0.0 mm
09:00 PM 70.4°F21.3°C 70.1°F21.2°C 99% Calm Calm -- 29.28 in991.5 mb - 0.00 in0.0 mm 0.00 in0.0 mm
10:00 PM 68.7°F20.4°C 68.4°F20.2°C 99% Calm Calm -- 29.29 in991.9 mb - 0.00 in0.0 mm 0.00 in0.0 mm
11:00 PM 67.5°F19.7°C 67.2°F19.6°C 99% Calm Calm -- 29.29 in991.9 mb - 0.00 in0.0 mm 0.00 in0.0 mm